Pagrindinis puslapis
METAR-TAF:

METAR-TAF

Oro uostai :

Yasuj, Iranas

platuma: 30-41-49N, ilguma: 051-33E, Aukštis: 1825 m

Dabartinis oras

Ataskaita buvo paskelbta 37 minutes, ne 05:00 UTC
Ramus vėjas
Temperatūra 3°C
Drėgmė 100%
Slėgis 1023 hPa
Matomumas: 8000 m
Išsisklaidę debesys ne aukštis 4000 ft
Su prošvaistėmis ne aukštis 7000 ft

METAR: OISY 300500Z 00000KT 8000 SCT040 BKN070 03/03 Q1023

Laikas: 09:07 (05:37 UTC)


TAF: trūkstamas

Orai ataskaitas ir orų prognozės (METAR, TAF).

turimą stotys yra geltonos ir raudonos taškus žemėlapyje.

Perkelti pele per norėdami pamatyti stoties vardą.

Tada spustelėkite, norėdami matyti oro stebėjimo ir prognozės.

Norėdami pakeisti žemėlapį: spustelėkite ant žalios mygtukų su juodo kryžiaus žemyn,; žalią mygtuką su brūkšneliu, jei norite nutolinti; arba žalių rodyklių gretimoms žemėlapius.


METAR-TAF: